createdAt,value
2018-06-14T10:24:29.926Z,324.00
2018-06-14T10:31:22.661Z,402.00
2018-06-14T10:32:23.427Z,402.00
2018-06-14T10:33:24.198Z,401.00
2018-06-14T10:34:24.972Z,401.00
2018-06-14T10:35:25.743Z,401.00
2018-06-14T10:36:26.537Z,401.00
2018-06-14T10:37:27.306Z,402.00
2018-06-14T10:38:28.077Z,401.00
2018-06-14T10:39:28.848Z,401.00
2018-06-14T10:40:29.617Z,401.00
2018-06-14T10:41:30.420Z,401.00
2018-06-14T10:42:31.189Z,401.00
2018-06-14T10:43:32.001Z,401.00
2018-06-14T10:44:31.733Z,400.00
2018-06-14T10:45:33.501Z,401.00
2018-06-14T10:46:34.306Z,401.00
2018-06-14T10:47:35.070Z,401.00
2018-06-14T10:48:35.839Z,401.00
2018-06-14T10:49:36.614Z,402.00
2018-06-14T10:50:37.386Z,402.00
2018-06-14T10:51:38.179Z,401.00
2018-06-14T10:52:38.949Z,402.00
2018-06-14T10:53:39.726Z,372.00
2018-06-14T10:54:40.494Z,361.00
2018-06-14T10:55:41.272Z,358.00
2018-06-14T10:56:42.061Z,360.00
2018-06-14T10:57:42.832Z,357.00
2018-06-14T10:58:43.606Z,357.00
2018-06-14T10:59:44.378Z,356.00
2018-06-14T11:00:45.151Z,356.00
2018-06-14T11:01:45.950Z,356.00
2018-06-14T11:02:46.720Z,356.00
2018-06-14T11:03:47.496Z,356.00
2018-06-14T11:04:47.266Z,357.00
2018-06-14T11:05:49.037Z,360.00
2018-06-14T11:06:49.836Z,358.00
2018-06-14T11:07:50.608Z,357.00
2018-06-14T11:08:51.558Z,358.00
2018-06-14T11:09:51.256Z,356.00
2018-06-14T11:10:53.032Z,357.00
2018-06-14T11:11:53.822Z,356.00
2018-06-14T11:12:54.595Z,355.00
2018-06-14T11:13:55.499Z,355.00
2018-06-14T11:14:55.212Z,356.00
2018-06-14T11:15:56.981Z,356.00
2018-06-14T11:16:57.777Z,356.00
2018-06-14T11:17:58.548Z,360.00
2018-06-14T11:18:59.328Z,358.00
2018-06-14T11:20:00.089Z,356.00
2018-06-14T11:21:00.859Z,354.00
2018-06-14T11:22:01.657Z,351.00
2018-06-14T11:23:02.437Z,329.00
2018-06-14T11:24:03.204Z,350.00
2018-06-14T11:25:03.980Z,351.00
2018-06-14T11:26:04.745Z,350.00
2018-06-14T11:27:05.544Z,349.00
2018-06-14T11:28:06.314Z,348.00
2018-06-14T11:29:07.107Z,349.00
2018-06-14T11:30:07.877Z,349.00
2018-06-14T11:31:08.648Z,348.00
2018-06-14T11:32:09.454Z,348.00
2018-06-14T11:33:10.221Z,349.00
2018-06-14T11:34:10.992Z,349.00
2018-06-14T11:35:11.766Z,348.00
2018-06-14T11:36:12.542Z,348.00
2018-06-14T11:37:12.348Z,346.00
2018-06-14T12:29:25.528Z,342.00
2018-06-14T12:30:26.320Z,351.00
2018-06-14T12:31:27.090Z,351.00
2018-06-14T12:32:27.861Z,351.00
2018-06-14T12:33:27.633Z,350.00
2018-06-14T12:34:29.407Z,349.00
2018-06-14T12:47:23.200Z,361.00
2018-06-14T12:48:23.991Z,361.00
2018-06-14T12:49:24.760Z,362.00
2018-06-14T12:50:25.531Z,363.00
2018-06-14T13:08:45.202Z,356.00
2018-06-14T13:09:45.997Z,351.00
2018-06-14T13:10:46.769Z,367.00
2018-06-14T13:11:47.537Z,358.00
2018-06-14T13:12:48.316Z,357.00
2018-06-14T13:13:49.081Z,358.00
2018-06-14T13:14:49.876Z,358.00
2018-06-14T13:15:50.716Z,357.00
2018-06-14T13:16:50.422Z,357.00
2018-06-14T13:17:52.199Z,357.00
2018-06-14T13:18:52.969Z,356.00
2018-06-14T13:19:53.767Z,356.00
2018-06-14T13:20:54.540Z,356.00
2018-06-14T13:21:55.310Z,357.00
2018-06-14T13:22:56.080Z,357.00
2018-06-14T13:23:56.853Z,355.00
2018-06-14T13:24:57.651Z,356.00
2018-06-14T13:25:58.420Z,355.00
2018-06-14T13:26:59.192Z,354.00
2018-06-14T13:27:59.967Z,355.00
2018-06-14T13:29:00.740Z,355.00
2018-06-14T13:30:01.530Z,357.00
2018-06-14T13:31:02.305Z,357.00
2018-06-14T13:32:03.077Z,357.00
2018-06-14T13:33:03.851Z,357.00
2018-06-14T13:34:04.623Z,357.00
2018-06-14T13:35:05.417Z,357.00
2018-06-14T13:36:06.196Z,357.00
2018-06-14T13:37:06.967Z,357.00
2018-06-14T13:38:07.739Z,357.00
2018-06-14T13:39:08.514Z,357.00
2018-06-14T13:40:09.309Z,336.00
2018-06-14T13:41:10.080Z,337.00
2018-06-14T13:42:10.861Z,336.00
2018-06-14T13:43:11.637Z,336.00
2018-06-14T13:44:12.404Z,336.00
2018-06-14T13:45:13.200Z,336.00
2018-06-14T13:46:13.975Z,336.00
2018-06-14T13:47:14.751Z,336.00
2018-06-14T13:48:15.529Z,369.00
2018-06-14T13:49:16.352Z,369.00
2018-06-14T13:50:16.130Z,368.00
2018-06-14T13:51:17.863Z,364.00
2018-06-14T13:52:18.636Z,368.00
2018-06-14T13:53:19.406Z,367.00
2018-06-14T13:54:20.412Z,366.00
2018-06-14T13:55:20.219Z,367.00
2018-06-14T13:56:20.917Z,366.00
2018-06-14T13:57:21.695Z,366.00
2018-06-14T13:58:22.486Z,366.00
2018-06-14T13:59:24.255Z,366.00
2018-06-14T14:00:25.053Z,366.00
2018-06-14T14:01:25.906Z,365.00
2018-06-14T14:02:25.594Z,365.00
2018-06-14T14:03:27.407Z,365.00
2018-06-14T14:04:27.152Z,366.00
2018-06-14T14:05:28.948Z,366.00
2018-06-14T14:06:29.771Z,366.00
2018-06-14T14:07:29.492Z,367.00
2018-06-14T14:08:31.265Z,366.00
2018-06-14T14:09:32.040Z,366.00
2018-06-14T14:10:32.833Z,367.00
2018-06-14T14:11:33.605Z,367.00
2018-06-14T14:12:34.377Z,364.00
2018-06-14T14:13:35.147Z,368.00
2018-06-14T14:14:35.991Z,368.00
2018-06-14T14:15:35.717Z,368.00
2018-06-14T14:16:37.491Z,368.00
2018-06-14T14:17:38.260Z,368.00
2018-06-14T14:18:39.036Z,367.00
2018-06-14T14:19:39.806Z,367.00
2018-06-14T14:20:40.602Z,367.00
2018-06-14T14:21:41.374Z,367.00
2018-06-14T14:22:42.148Z,366.00
2018-06-14T14:23:42.920Z,366.00
2018-06-14T14:24:43.694Z,365.00
2018-06-14T14:25:44.489Z,365.00
2018-06-14T14:26:45.260Z,364.00
2018-06-14T14:27:46.039Z,363.00
2018-06-14T14:28:46.804Z,363.00
2018-06-14T14:29:47.577Z,363.00
2018-06-14T14:30:48.376Z,356.00
2018-06-14T14:31:49.147Z,355.00
2018-06-14T14:32:49.922Z,355.00
2018-06-14T14:33:50.700Z,355.00
2018-06-14T14:34:51.473Z,356.00
2018-06-14T14:35:52.270Z,356.00
2018-06-14T14:36:53.039Z,356.00
2018-06-14T14:37:53.811Z,356.00
2018-06-14T14:38:54.584Z,356.00
2018-06-14T14:39:55.353Z,355.00
2018-06-14T14:40:56.155Z,355.00
2018-06-14T14:41:56.924Z,354.00
2018-06-14T14:42:57.703Z,354.00
2018-06-14T14:43:58.470Z,354.00
2018-06-14T14:44:59.244Z,354.00
2018-06-14T14:46:00.040Z,354.00
2018-06-14T14:47:00.812Z,355.00
2018-06-14T14:48:01.588Z,355.00
2018-06-14T14:49:02.360Z,355.00
2018-06-14T14:50:03.131Z,355.00
2018-06-14T14:51:03.930Z,354.00
2018-06-14T14:52:04.702Z,355.00
2018-06-14T14:53:05.537Z,355.00
2018-06-14T14:54:05.245Z,325.00
2018-06-14T14:55:07.084Z,355.00
2018-06-14T14:56:06.825Z,355.00
2018-06-14T14:57:08.600Z,355.00
2018-06-14T14:58:09.373Z,356.00
2018-06-14T14:59:10.144Z,357.00
2018-06-14T15:00:10.919Z,356.00
2018-06-14T15:01:11.711Z,356.00
2018-06-14T15:02:12.494Z,357.00
2018-06-14T15:03:13.268Z,357.00
2018-06-14T15:04:14.043Z,357.00
2018-06-14T15:05:14.820Z,358.00
2018-06-14T15:06:15.997Z,360.00
2018-06-14T15:09:12.588Z,361.00
2018-06-14T15:10:13.365Z,361.00
2018-06-14T15:11:14.131Z,361.00
2018-06-14T15:12:14.926Z,360.00
2018-06-14T15:13:15.701Z,344.00
2018-06-14T15:14:16.513Z,344.00
2018-06-14T15:15:16.246Z,344.00
2018-06-14T15:16:18.017Z,358.00
2018-06-14T15:17:18.814Z,342.00
2018-06-14T15:18:19.587Z,341.00
2018-06-14T15:19:20.360Z,340.00
2018-06-14T15:20:21.133Z,340.00
2018-06-14T15:21:21.918Z,339.00
2018-06-14T15:22:21.698Z,339.00
2018-06-14T15:23:23.470Z,339.00
2018-06-14T15:24:24.239Z,338.00
2018-06-14T15:25:25.011Z,338.00
2018-06-14T15:26:24.786Z,338.00
2018-06-14T15:27:26.576Z,337.00
2018-06-14T15:28:27.374Z,337.00
2018-06-14T15:29:28.124Z,337.00
2018-06-14T15:30:28.898Z,337.00
2018-06-14T15:31:29.668Z,336.00
2018-06-14T15:32:30.465Z,336.00
2018-06-14T15:33:31.235Z,336.00
2018-06-14T15:34:32.009Z,334.00
2018-06-14T15:35:32.779Z,334.00
2018-06-14T15:36:33.552Z,336.00
2018-06-14T15:37:34.349Z,334.00
2018-06-14T15:38:35.119Z,336.00
2018-06-14T15:39:35.895Z,336.00
2018-06-14T15:40:36.671Z,336.00
2018-06-14T15:41:37.441Z,336.00
2018-06-14T15:42:38.246Z,336.00
2018-06-14T15:43:39.008Z,337.00
2018-06-14T15:44:39.785Z,337.00
2018-06-14T15:45:40.556Z,337.00
2018-06-14T15:46:41.329Z,337.00
2018-06-14T15:47:42.125Z,337.00
2018-06-14T15:48:42.896Z,337.00
2018-06-14T15:49:43.669Z,338.00
2018-06-14T15:50:44.441Z,338.00
2018-06-14T15:51:45.219Z,336.00
2018-06-14T15:52:46.017Z,337.00
2018-06-14T15:53:46.785Z,337.00
2018-06-14T15:54:47.559Z,337.00
2018-06-14T15:55:48.331Z,337.00
2018-06-14T15:56:49.105Z,337.00
2018-06-14T15:57:49.917Z,337.00
2018-06-14T15:58:50.696Z,337.00
2018-06-14T15:59:51.465Z,336.00
2018-06-14T16:00:52.256Z,336.00
2018-06-14T16:01:52.011Z,336.00
2018-06-14T16:02:53.809Z,336.00
2018-06-14T16:03:54.584Z,337.00
2018-06-14T16:04:55.362Z,336.00
2018-06-14T16:05:55.125Z,336.00
2018-06-14T16:06:56.898Z,337.00
2018-06-14T16:07:57.692Z,336.00
2018-06-14T16:08:58.465Z,334.00
2018-06-14T16:09:59.240Z,336.00
2018-06-14T16:11:00.016Z,336.00
2018-06-14T16:12:00.785Z,336.00
2018-06-14T16:13:01.584Z,336.00
2018-06-14T16:14:02.357Z,336.00
2018-06-14T16:15:03.131Z,336.00
2018-06-14T16:16:03.902Z,336.00
2018-06-14T16:17:04.676Z,336.00
2018-06-14T16:18:05.476Z,336.00
2018-06-14T16:19:06.252Z,336.00
2018-06-14T16:20:06.021Z,336.00
2018-06-14T16:21:07.812Z,337.00
2018-06-14T16:22:08.569Z,334.00
2018-06-14T16:23:09.358Z,336.00
2018-06-14T16:24:10.137Z,336.00
2018-06-14T16:25:10.905Z,336.00
2018-06-14T16:26:11.676Z,334.00
2018-06-14T16:27:12.450Z,334.00
2018-06-14T16:28:13.247Z,333.00
2018-06-14T16:29:14.019Z,332.00
2018-06-14T16:30:14.788Z,332.00
2018-06-14T16:31:15.565Z,332.00
2018-06-14T16:32:16.338Z,331.00
2018-06-14T16:33:17.143Z,331.00
2018-06-14T16:34:17.910Z,331.00
2018-06-14T16:35:18.682Z,330.00
2018-06-14T16:36:19.458Z,330.00
2018-06-14T16:37:20.305Z,330.00
2018-06-14T16:38:20.021Z,330.00
2018-06-14T16:39:21.796Z,330.00
2018-06-14T16:40:22.579Z,330.00
2018-06-14T16:41:22.343Z,330.00
2018-06-14T16:42:24.115Z,329.00
2018-06-14T16:43:24.915Z,330.00
2018-06-14T16:44:24.706Z,330.00
2018-06-14T16:45:26.462Z,330.00
2018-06-14T16:46:27.234Z,329.00
2018-06-14T16:47:28.006Z,330.00
2018-06-14T16:48:28.806Z,330.00
2018-06-14T16:49:29.582Z,329.00
2018-06-14T16:50:30.352Z,329.00
2018-06-14T16:51:31.123Z,330.00
2018-06-14T16:52:31.907Z,329.00
2018-06-14T16:53:31.691Z,329.00
2018-06-14T16:54:33.463Z,329.00
2018-06-14T16:55:34.239Z,329.00
2018-06-14T16:56:35.008Z,329.00
2018-06-14T16:57:35.783Z,329.00
2018-06-14T16:58:36.580Z,329.00
2018-06-14T16:59:37.352Z,329.00
2018-06-14T17:00:38.126Z,329.00
2018-06-14T17:01:38.896Z,328.00
2018-06-14T17:02:39.674Z,328.00
2018-06-14T17:03:40.472Z,328.00
2018-06-14T17:04:41.599Z,328.00
2018-06-14T17:05:41.784Z,328.00
2018-06-14T17:06:40.966Z,328.00
2018-06-14T17:08:49.331Z,328.00
2018-06-14T17:09:50.103Z,328.00
2018-06-14T17:10:50.874Z,328.00
2018-06-14T17:11:51.644Z,327.00
2018-06-14T17:12:52.416Z,327.00
2018-06-14T17:13:53.216Z,327.00
2018-06-14T17:14:53.984Z,327.00
2018-06-14T17:15:54.805Z,327.00
2018-06-14T17:16:54.529Z,326.00
2018-06-14T17:17:56.300Z,327.00
2018-06-14T17:18:57.097Z,326.00
2018-06-14T17:19:57.863Z,327.00
2018-06-14T17:20:58.643Z,326.00
2018-06-14T17:21:59.412Z,326.00
2018-06-14T17:23:00.183Z,326.00
2018-06-14T17:24:00.988Z,326.00
2018-06-14T17:25:01.754Z,326.00
2018-06-14T17:26:02.528Z,326.00
2018-06-14T17:27:03.295Z,326.00
2018-06-14T17:28:04.074Z,326.00
2018-06-14T17:29:04.869Z,326.00
2018-06-14T17:30:05.638Z,326.00
2018-06-14T17:31:06.406Z,326.00
2018-06-14T17:32:07.178Z,326.00
2018-06-14T17:33:07.951Z,326.00
2018-06-14T17:34:08.748Z,325.00
2018-06-14T17:35:09.521Z,325.00
2018-06-14T17:36:10.313Z,325.00
2018-06-14T17:37:11.063Z,324.00
2018-06-14T17:38:11.835Z,324.00
2018-06-14T17:39:12.630Z,324.00
2018-06-14T17:40:13.402Z,324.00
2018-06-14T17:41:14.344Z,324.00
2018-06-14T17:42:13.945Z,324.00
2018-06-14T17:43:15.775Z,324.00
2018-06-14T17:44:15.518Z,324.00
2018-06-14T17:45:17.285Z,324.00
2018-06-14T17:46:17.118Z,324.00
2018-06-14T17:47:17.836Z,324.00
2018-06-14T17:48:19.608Z,324.00
2018-06-14T17:49:20.403Z,324.00
2018-06-14T17:50:21.176Z,324.00
2018-06-14T17:51:21.954Z,324.00
2018-06-14T17:52:22.722Z,324.00
2018-06-14T17:53:23.537Z,324.00
2018-06-14T17:54:23.286Z,324.00
2018-06-14T17:55:25.060Z,321.00
2018-06-14T17:56:25.846Z,320.00
2018-06-14T17:57:26.604Z,320.00
2018-06-14T17:58:27.372Z,320.00
2018-06-14T17:59:28.171Z,320.00
2018-06-14T18:00:28.945Z,320.00
2018-06-14T18:01:29.723Z,320.00
2018-06-14T18:02:30.486Z,320.00
2018-06-14T18:03:31.263Z,320.00
2018-06-14T18:04:32.062Z,320.00
2018-06-14T18:05:32.830Z,320.00
2018-06-14T18:06:33.631Z,321.00
2018-06-14T18:07:35.080Z,320.00
2018-06-14T18:08:34.149Z,320.00
2018-06-14T18:09:35.944Z,320.00
2018-06-14T18:10:36.713Z,320.00
2018-06-14T18:11:37.484Z,320.00
2018-06-14T18:12:38.256Z,320.00
2018-06-14T18:13:39.029Z,320.00
2018-06-14T18:14:39.823Z,320.00
2018-06-14T18:15:40.594Z,320.00
2018-06-14T18:16:41.372Z,320.00
2018-06-14T18:17:42.146Z,320.00
2018-06-14T18:18:42.921Z,320.00
2018-06-14T18:19:43.709Z,320.00
2018-06-14T18:20:44.481Z,320.00
2018-06-14T18:21:48.104Z,320.00
2018-06-14T18:22:47.830Z,320.00
2018-06-14T18:23:46.604Z,320.00
2018-06-14T18:24:47.398Z,320.00
2018-06-14T18:25:48.170Z,320.00
2018-06-14T18:26:48.942Z,320.00
2018-06-14T18:27:49.714Z,320.00
2018-06-14T18:28:50.494Z,320.00
2018-06-14T18:29:51.339Z,320.00
2018-06-14T18:30:51.055Z,320.00
2018-06-14T18:31:52.825Z,320.00
2018-06-14T18:32:53.669Z,320.00
2018-06-14T18:33:53.369Z,320.00
2018-06-14T18:34:55.165Z,320.00
2018-06-14T18:35:55.936Z,320.00
2018-06-14T18:36:56.711Z,320.00
2018-06-14T18:37:57.495Z,320.00
2018-06-14T18:38:58.252Z,321.00
2018-06-14T18:39:59.046Z,320.00
2018-06-14T18:40:59.817Z,320.00
2018-06-14T18:42:00.589Z,320.00
2018-06-14T18:43:01.362Z,320.00
2018-06-14T18:44:02.132Z,320.00
2018-06-14T18:45:02.929Z,320.00
2018-06-14T18:46:03.698Z,320.00
2018-06-14T18:47:04.472Z,320.00
2018-06-14T18:48:05.246Z,320.00
2018-06-14T18:49:06.023Z,320.00
2018-06-14T18:50:06.815Z,320.00
2018-06-14T18:51:07.586Z,320.00
2018-06-14T18:52:08.359Z,320.00
2018-06-14T18:53:09.132Z,320.00
2018-06-14T18:54:09.901Z,320.00
2018-06-14T18:55:10.700Z,320.00
2018-06-14T18:56:11.470Z,320.00
2018-06-14T18:57:12.244Z,320.00
2018-06-14T18:58:13.024Z,320.00
2018-06-14T18:59:13.795Z,320.00
2018-06-14T19:00:14.594Z,320.00
2018-06-14T19:01:15.392Z,320.00
2018-06-14T19:02:16.137Z,320.00
2018-06-14T19:03:16.912Z,320.00
2018-06-14T19:04:18.039Z,320.00
2018-06-14T19:05:18.247Z,320.00
2018-06-14T19:06:17.422Z,320.00
2018-06-14T19:07:27.586Z,320.00
2018-06-14T19:08:28.357Z,320.00
2018-06-14T19:09:29.126Z,320.00
2018-06-14T19:10:29.920Z,320.00
2018-06-14T19:11:30.691Z,320.00
2018-06-14T19:12:31.461Z,320.00
2018-06-14T19:13:32.233Z,321.00
2018-06-14T19:14:33.003Z,320.00
2018-06-14T19:15:33.808Z,320.00
2018-06-14T19:16:34.572Z,320.00
2018-06-14T19:17:35.411Z,320.00
2018-06-14T19:18:35.113Z,320.00
2018-06-14T19:19:36.885Z,320.00
2018-06-14T19:20:37.683Z,320.00
2018-06-14T19:21:38.455Z,320.00
2018-06-14T19:22:39.251Z,320.00
2018-06-14T19:23:39.002Z,320.00
2018-06-14T19:24:40.770Z,320.00
2018-06-14T19:25:41.560Z,320.00
2018-06-14T19:26:42.334Z,321.00
2018-06-14T19:27:43.101Z,320.00
2018-06-14T19:28:43.873Z,320.00
2018-06-14T19:29:44.645Z,320.00
2018-06-14T19:30:45.438Z,320.00
2018-06-14T19:31:46.211Z,320.00
2018-06-14T19:32:46.982Z,320.00
2018-06-14T19:33:47.753Z,320.00
2018-06-14T19:34:48.527Z,320.00
2018-06-14T19:35:49.328Z,320.00
2018-06-14T19:36:50.095Z,320.00
2018-06-14T19:37:50.870Z,320.00
2018-06-14T19:38:51.637Z,320.00
2018-06-14T19:39:52.406Z,320.00
2018-06-14T19:40:53.201Z,320.00
2018-06-14T19:41:53.972Z,320.00
2018-06-14T19:42:54.746Z,320.00
2018-06-14T19:43:55.524Z,320.00
2018-06-14T19:44:56.287Z,320.00
2018-06-14T19:45:57.083Z,320.00
2018-06-14T19:46:57.850Z,320.00
2018-06-14T19:47:58.664Z,320.00
2018-06-14T19:48:58.394Z,320.00
2018-06-14T19:50:00.164Z,320.00
2018-06-14T19:51:00.963Z,320.00
2018-06-14T19:52:01.746Z,320.00
2018-06-14T19:53:02.516Z,320.00
2018-06-14T19:54:03.288Z,320.00
2018-06-14T19:55:04.061Z,320.00
2018-06-14T19:56:04.855Z,321.00
2018-06-14T19:57:05.623Z,320.00
2018-06-14T19:58:06.396Z,320.00
2018-06-14T19:59:07.165Z,320.00
2018-06-14T20:00:07.949Z,320.00
2018-06-14T20:01:08.744Z,320.00
2018-06-14T20:02:08.508Z,320.00
2018-06-14T20:03:10.278Z,320.00
2018-06-14T20:04:11.046Z,320.00
2018-06-14T20:05:11.818Z,320.00
2018-06-14T20:06:12.614Z,320.00
2018-06-14T20:07:13.383Z,320.00
2018-06-14T20:08:14.157Z,320.00
2018-06-14T20:09:14.940Z,320.00
2018-06-14T20:10:15.708Z,320.00
2018-06-14T20:11:16.503Z,320.00
2018-06-14T20:12:17.275Z,320.00
2018-06-14T20:13:18.046Z,320.00
2018-06-14T20:14:18.851Z,320.00
2018-06-14T20:15:19.591Z,319.00
2018-06-14T20:16:20.386Z,319.00
2018-06-14T20:17:21.160Z,319.00
2018-06-14T20:18:21.930Z,320.00
2018-06-14T20:19:22.703Z,319.00
2018-06-14T20:20:23.473Z,319.00
2018-06-14T20:21:24.273Z,319.00
2018-06-14T20:22:25.049Z,319.00
2018-06-14T20:23:25.819Z,319.00
2018-06-14T20:24:26.594Z,320.00
2018-06-14T20:25:27.367Z,319.00
2018-06-14T20:26:28.159Z,319.00
2018-06-14T20:27:28.933Z,319.00
2018-06-14T20:28:29.703Z,319.00
2018-06-14T20:29:30.474Z,319.00
2018-06-14T20:30:31.252Z,319.00
2018-06-14T20:31:32.043Z,319.00
2018-06-14T20:32:32.817Z,319.00
2018-06-14T20:33:33.590Z,320.00
2018-06-14T20:34:34.362Z,319.00
2018-06-14T20:35:35.136Z,319.00
2018-06-14T20:36:35.928Z,320.00
2018-06-14T20:37:36.699Z,320.00
2018-06-14T20:38:37.473Z,320.00
2018-06-14T20:39:38.247Z,320.00
2018-06-14T20:40:39.018Z,320.00
2018-06-14T20:41:39.825Z,320.00
2018-06-14T20:42:40.596Z,320.00
2018-06-14T20:43:41.404Z,320.00
2018-06-14T20:44:42.139Z,320.00
2018-06-14T20:45:42.912Z,320.00
2018-06-14T20:46:43.710Z,320.00
2018-06-14T20:47:44.485Z,320.00
2018-06-14T20:48:45.296Z,320.00
2018-06-14T20:49:45.037Z,320.00
2018-06-14T20:50:46.803Z,320.00
2018-06-14T20:51:47.665Z,320.00
2018-06-14T20:52:47.374Z,320.00
2018-06-14T20:53:49.141Z,320.00
2018-06-14T20:54:49.915Z,320.00
2018-06-14T20:55:50.687Z,320.00
2018-06-14T20:56:51.484Z,320.00
2018-06-14T20:57:52.256Z,320.00
2018-06-14T20:58:53.027Z,320.00
2018-06-14T20:59:54.158Z,320.00
2018-06-14T21:03:04.502Z,320.00
2018-06-14T21:04:05.271Z,320.00
2018-06-14T21:05:06.111Z,320.00
2018-06-14T21:06:05.811Z,320.00
2018-06-14T21:07:07.607Z,320.00
2018-06-14T21:08:08.378Z,320.00
2018-06-14T21:09:09.150Z,321.00
2018-06-14T21:10:09.921Z,320.00
2018-06-14T21:11:10.695Z,320.00
2018-06-14T21:12:11.486Z,320.00
2018-06-14T21:13:12.256Z,320.00
2018-06-14T21:14:13.030Z,320.00
2018-06-14T21:15:13.804Z,320.00
2018-06-14T21:16:14.573Z,320.00
2018-06-14T21:17:15.368Z,320.00
2018-06-14T21:18:16.140Z,320.00
2018-06-14T21:19:16.910Z,320.00
2018-06-14T21:20:17.682Z,320.00
2018-06-14T21:21:18.454Z,320.00
2018-06-14T21:22:19.253Z,320.00
2018-06-14T21:23:20.022Z,320.00
2018-06-14T21:24:20.793Z,320.00
2018-06-14T21:25:21.568Z,320.00
2018-06-14T21:26:22.340Z,320.00
2018-06-14T21:27:23.135Z,320.00
2018-06-14T21:28:23.906Z,320.00
2018-06-14T21:29:24.677Z,320.00
2018-06-14T21:30:25.449Z,320.00
2018-06-14T21:31:26.225Z,320.00
2018-06-14T21:32:27.024Z,320.00
